sensor_id;sensor_type;location;lat;lon;timestamp;pressure;altitude;pressure_sealevel;temperature
78669;BMP280;67984;45.118;20.724;2023-04-25T00:08:41;99398.09;;;14.22
78669;BMP280;67984;45.118;20.724;2023-04-25T00:18:42;99404.09;;;14.22
78669;BMP280;67984;45.118;20.724;2023-04-25T00:28:43;99406.31;;;14.24
78669;BMP280;67984;45.118;20.724;2023-04-25T00:38:43;99405.69;;;14.20
78669;BMP280;67984;45.118;20.724;2023-04-25T00:48:44;99406.06;;;14.06
78669;BMP280;67984;45.118;20.724;2023-04-25T00:58:46;99396.88;;;14.14
78669;BMP280;67984;45.118;20.724;2023-04-25T01:08:47;99387.63;;;14.22
78669;BMP280;67984;45.118;20.724;2023-04-25T01:18:48;99395.50;;;14.34
78669;BMP280;67984;45.118;20.724;2023-04-25T01:28:49;99389.81;;;14.36
78669;BMP280;67984;45.118;20.724;2023-04-25T01:38:50;99392.44;;;14.36
78669;BMP280;67984;45.118;20.724;2023-04-25T01:48:51;99402.41;;;14.28
78669;BMP280;67984;45.118;20.724;2023-04-25T01:58:51;99404.53;;;14.21
78669;BMP280;67984;45.118;20.724;2023-04-25T02:08:55;99395.41;;;14.13
78669;BMP280;67984;45.118;20.724;2023-04-25T02:18:56;99378.38;;;14.05
78669;BMP280;67984;45.118;20.724;2023-04-25T02:28:57;99378.81;;;14.04
78669;BMP280;67984;45.118;20.724;2023-04-25T02:38:58;99373.44;;;13.95
78669;BMP280;67984;45.118;20.724;2023-04-25T02:48:58;99366.16;;;13.86
78669;BMP280;67984;45.118;20.724;2023-04-25T02:58:59;99365.00;;;13.87
78669;BMP280;67984;45.118;20.724;2023-04-25T03:09:00;99366.28;;;13.83
78669;BMP280;67984;45.118;20.724;2023-04-25T03:19:03;99356.13;;;13.85
78669;BMP280;67984;45.118;20.724;2023-04-25T03:29:04;99360.28;;;13.82
78669;BMP280;67984;45.118;20.724;2023-04-25T03:39:04;99356.09;;;13.72
78669;BMP280;67984;45.118;20.724;2023-04-25T03:49:07;99370.00;;;13.69
78669;BMP280;67984;45.118;20.724;2023-04-25T03:59:28;99368.66;;;13.65
78669;BMP280;67984;45.118;20.724;2023-04-25T04:09:29;99369.50;;;13.62
78669;BMP280;67984;45.118;20.724;2023-04-25T04:19:32;99378.41;;;13.64
78669;BMP280;67984;45.118;20.724;2023-04-25T04:29:41;99383.97;;;13.66
78669;BMP280;67984;45.118;20.724;2023-04-25T04:39:47;99381.63;;;13.56
78669;BMP280;67984;45.118;20.724;2023-04-25T04:50:11;99381.38;;;13.50
78669;BMP280;67984;45.118;20.724;2023-04-25T05:00:33;99381.72;;;13.52
78669;BMP280;67984;45.118;20.724;2023-04-25T05:10:52;99384.53;;;13.46
78669;BMP280;67984;45.118;20.724;2023-04-25T05:21:01;99390.59;;;13.43
78669;BMP280;67984;45.118;20.724;2023-04-25T05:31:20;99412.91;;;12.87
78669;BMP280;67984;45.118;20.724;2023-04-25T05:41:47;99423.78;;;12.34
78669;BMP280;67984;45.118;20.724;2023-04-25T05:52:06;99430.75;;;12.22
78669;BMP280;67984;45.118;20.724;2023-04-25T06:02:17;99446.56;;;12.15
78669;BMP280;67984;45.118;20.724;2023-04-25T06:12:18;99448.31;;;12.02
78669;BMP280;67984;45.118;20.724;2023-04-25T06:22:21;99470.03;;;11.99
78669;BMP280;67984;45.118;20.724;2023-04-25T06:32:22;99473.03;;;11.78
78669;BMP280;67984;45.118;20.724;2023-04-25T06:42:24;99480.28;;;11.67
78669;BMP280;67984;45.118;20.724;2023-04-25T06:52:32;99504.06;;;11.76
78669;BMP280;67984;45.118;20.724;2023-04-25T07:02:33;99529.03;;;12.00
78669;BMP280;67984;45.118;20.724;2023-04-25T07:12:36;99519.91;;;12.08
78669;BMP280;67984;45.118;20.724;2023-04-25T07:22:37;99528.31;;;12.19
78669;BMP280;67984;45.118;20.724;2023-04-25T07:32:39;99534.97;;;12.42
78669;BMP280;67984;45.118;20.724;2023-04-25T07:42:39;99550.34;;;12.60
78669;BMP280;67984;45.118;20.724;2023-04-25T07:52:41;99543.47;;;12.46
78669;BMP280;67984;45.118;20.724;2023-04-25T08:02:52;99555.78;;;13.20
78669;BMP280;67984;45.118;20.724;2023-04-25T08:12:54;99570.94;;;13.76
78669;BMP280;67984;45.118;20.724;2023-04-25T08:22:57;99584.59;;;13.99
78669;BMP280;67984;45.118;20.724;2023-04-25T08:33:17;99602.47;;;14.04
78669;BMP280;67984;45.118;20.724;2023-04-25T08:43:19;99604.81;;;14.30
78669;BMP280;67984;45.118;20.724;2023-04-25T08:53:28;99624.78;;;14.40
78669;BMP280;67984;45.118;20.724;2023-04-25T09:03:31;99641.59;;;14.71
78669;BMP280;67984;45.118;20.724;2023-04-25T09:13:32;99650.66;;;14.82
78669;BMP280;67984;45.118;20.724;2023-04-25T09:23:53;99648.97;;;14.88
78669;BMP280;67984;45.118;20.724;2023-04-25T09:33:59;99683.00;;;14.79
78669;BMP280;67984;45.118;20.724;2023-04-25T09:44:12;99659.13;;;15.27
78669;BMP280;67984;45.118;20.724;2023-04-25T09:54:16;99658.63;;;15.32
78669;BMP280;67984;45.118;20.724;2023-04-25T10:04:24;99668.78;;;15.55
78669;BMP280;67984;45.118;20.724;2023-04-25T10:14:31;99656.53;;;15.85
78669;BMP280;67984;45.118;20.724;2023-04-25T10:24:34;99651.00;;;16.38
78669;BMP280;67984;45.118;20.724;2023-04-25T10:34:43;99652.47;;;16.39
78669;BMP280;67984;45.118;20.724;2023-04-25T10:45:08;99641.22;;;16.60
78669;BMP280;67984;45.118;20.724;2023-04-25T10:55:08;99638.34;;;17.06
78669;BMP280;67984;45.118;20.724;2023-04-25T11:05:09;99639.53;;;17.05
78669;BMP280;67984;45.118;20.724;2023-04-25T11:15:10;99637.09;;;17.29
78669;BMP280;67984;45.118;20.724;2023-04-25T11:25:12;99630.91;;;17.14
78669;BMP280;67984;45.118;20.724;2023-04-25T11:35:14;99637.97;;;16.87
78669;BMP280;67984;45.118;20.724;2023-04-25T11:45:15;99633.63;;;16.41
78669;BMP280;67984;45.118;20.724;2023-04-25T11:55:19;99627.09;;;17.15
78669;BMP280;67984;45.118;20.724;2023-04-25T12:05:24;99617.13;;;17.85
78669;BMP280;67984;45.118;20.724;2023-04-25T12:15:25;99614.28;;;17.35
78669;BMP280;67984;45.118;20.724;2023-04-25T12:25:40;99612.28;;;17.08
78669;BMP280;67984;45.118;20.724;2023-04-25T12:35:42;99590.72;;;17.58
78669;BMP280;67984;45.118;20.724;2023-04-25T12:45:43;99579.88;;;17.83
78669;BMP280;67984;45.118;20.724;2023-04-25T12:56:03;99573.72;;;18.03
78669;BMP280;67984;45.118;20.724;2023-04-25T13:06:05;99582.25;;;17.81
78669;BMP280;67984;45.118;20.724;2023-04-25T13:16:06;99582.56;;;17.17
78669;BMP280;67984;45.118;20.724;2023-04-25T13:26:09;99568.97;;;17.18
78669;BMP280;67984;45.118;20.724;2023-04-25T13:36:10;99552.59;;;17.50
78669;BMP280;67984;45.118;20.724;2023-04-25T13:46:11;99539.72;;;17.70
78669;BMP280;67984;45.118;20.724;2023-04-25T13:56:13;99528.34;;;18.55
78669;BMP280;67984;45.118;20.724;2023-04-25T14:06:14;99528.16;;;18.26
78669;BMP280;67984;45.118;20.724;2023-04-25T14:16:21;99522.66;;;17.89
78669;BMP280;67984;45.118;20.724;2023-04-25T14:26:23;99523.56;;;17.59
78669;BMP280;67984;45.118;20.724;2023-04-25T14:36:24;99517.97;;;17.12
78669;BMP280;67984;45.118;20.724;2023-04-25T14:46:26;99523.81;;;17.07
78669;BMP280;67984;45.118;20.724;2023-04-25T14:56:27;99528.16;;;17.58
78669;BMP280;67984;45.118;20.724;2023-04-25T15:06:28;99517.56;;;17.94
78669;BMP280;67984;45.118;20.724;2023-04-25T15:16:30;99522.72;;;17.62
78669;BMP280;67984;45.118;20.724;2023-04-25T15:26:31;99515.38;;;17.39
78669;BMP280;67984;45.118;20.724;2023-04-25T15:36:32;99516.09;;;17.22
78669;BMP280;67984;45.118;20.724;2023-04-25T15:46:33;99506.25;;;17.04
78669;BMP280;67984;45.118;20.724;2023-04-25T15:56:34;99504.31;;;16.96
78669;BMP280;67984;45.118;20.724;2023-04-25T16:06:35;99505.38;;;17.16
78669;BMP280;67984;45.118;20.724;2023-04-25T16:16:36;99499.25;;;17.28
78669;BMP280;67984;45.118;20.724;2023-04-25T16:26:36;99498.09;;;17.29
78669;BMP280;67984;45.118;20.724;2023-04-25T16:36:37;99493.06;;;16.95
78669;BMP280;67984;45.118;20.724;2023-04-25T16:46:38;99501.88;;;16.62
78669;BMP280;67984;45.118;20.724;2023-04-25T16:56:39;99511.91;;;16.16
78669;BMP280;67984;45.118;20.724;2023-04-25T17:06:41;99512.22;;;15.75
78669;BMP280;67984;45.118;20.724;2023-04-25T17:16:41;99515.78;;;15.35
78669;BMP280;67984;45.118;20.724;2023-04-25T17:26:42;99518.28;;;14.92
78669;BMP280;67984;45.118;20.724;2023-04-25T17:36:46;99531.16;;;14.50
78669;BMP280;67984;45.118;20.724;2023-04-25T17:46:47;99538.72;;;14.07
78669;BMP280;67984;45.118;20.724;2023-04-25T17:56:49;99555.41;;;13.69
78669;BMP280;67984;45.118;20.724;2023-04-25T18:06:50;99556.97;;;13.35
78669;BMP280;67984;45.118;20.724;2023-04-25T18:16:51;99572.63;;;13.03
78669;BMP280;67984;45.118;20.724;2023-04-25T18:26:55;99581.53;;;12.70
78669;BMP280;67984;45.118;20.724;2023-04-25T18:36:59;99583.88;;;12.45
78669;BMP280;67984;45.118;20.724;2023-04-25T18:47:00;99589.84;;;12.26
78669;BMP280;67984;45.118;20.724;2023-04-25T18:57:01;99596.53;;;12.05
78669;BMP280;67984;45.118;20.724;2023-04-25T19:07:02;99601.75;;;11.82
78669;BMP280;67984;45.118;20.724;2023-04-25T19:17:03;104436.31;;;11.58
78669;BMP280;67984;45.118;20.724;2023-04-25T19:27:04;99614.31;;;11.41
78669;BMP280;67984;45.118;20.724;2023-04-25T19:37:05;99611.53;;;11.25
78669;BMP280;67984;45.118;20.724;2023-04-25T19:47:06;99625.19;;;11.06
78669;BMP280;67984;45.118;20.724;2023-04-25T19:57:07;99623.03;;;10.94
78669;BMP280;67984;45.118;20.724;2023-04-25T20:07:08;99624.06;;;10.71
78669;BMP280;67984;45.118;20.724;2023-04-25T20:17:19;99628.66;;;10.56
78669;BMP280;67984;45.118;20.724;2023-04-25T20:27:38;99625.09;;;10.40
78669;BMP280;67984;45.118;20.724;2023-04-25T20:37:39;99624.47;;;10.26
78669;BMP280;67984;45.118;20.724;2023-04-25T20:47:40;99628.31;;;10.11
78669;BMP280;67984;45.118;20.724;2023-04-25T20:57:42;99628.44;;;9.93
78669;BMP280;67984;45.118;20.724;2023-04-25T21:07:42;99626.31;;;9.78
78669;BMP280;67984;45.118;20.724;2023-04-25T21:17:48;99624.50;;;9.64
78669;BMP280;67984;45.118;20.724;2023-04-25T21:27:50;99635.41;;;9.46
78669;BMP280;67984;45.118;20.724;2023-04-25T21:37:51;99640.28;;;9.33
78669;BMP280;67984;45.118;20.724;2023-04-25T21:47:52;99649.63;;;9.24
78669;BMP280;67984;45.118;20.724;2023-04-25T21:57:53;99650.00;;;9.12
78669;BMP280;67984;45.118;20.724;2023-04-25T22:07:54;99648.19;;;9.02
78669;BMP280;67984;45.118;20.724;2023-04-25T22:17:58;99644.09;;;8.84
78669;BMP280;67984;45.118;20.724;2023-04-25T22:27:59;99650.84;;;8.78
78669;BMP280;67984;45.118;20.724;2023-04-25T22:38:00;99650.44;;;8.86
78669;BMP280;67984;45.118;20.724;2023-04-25T22:48:01;99649.72;;;8.82
78669;BMP280;67984;45.118;20.724;2023-04-25T22:58:03;99668.66;;;8.83
78669;BMP280;67984;45.118;20.724;2023-04-25T23:08:03;99670.50;;;8.75
78669;BMP280;67984;45.118;20.724;2023-04-25T23:18:04;99670.53;;;8.68
78669;BMP280;67984;45.118;20.724;2023-04-25T23:28:05;99663.06;;;8.67
78669;BMP280;67984;45.118;20.724;2023-04-25T23:38:06;99669.06;;;8.64
78669;BMP280;67984;45.118;20.724;2023-04-25T23:48:11;99663.84;;;8.64
78669;BMP280;67984;45.118;20.724;2023-04-25T23:58:12;99662.34;;;8.59
